Marazion, United Kingdom
Current Conditions -  °F | °C
As of 3:50 PM on Thursday 29 Jan 2015 (Local Time) from EGDR Reporting Station
Rain Showers Rain Showers  
Wind Chill: 32°   Ceiling: Unl
Heat Index: 43°   Visibility: 6mi
Dew Point: 30°   Wind: 29mph
Humidity: 61%   Direction: 310°NW
Pressure: 29.12"   Gusts: 48mph
Location:  50.13°N, 5.49°W
Report Text: EGDR 291550Z 31025G42KT 9999 VCSH FEW014 SCT022 06/M01 Q0986 WHT TEMPO 4000 SHRA SCT008 BKN018TCU GRN
Loading
Personal Weather Stations






























Interactive Weather Map New forecast layout! Learn more

10-Day Weather Forecast

Advertisements
Track Severe Weather on mobile